Hills and Dales, Indiana
Current Conditions -  °F | °C
As of 1:26 PM on Thursday 27 Nov 2014 (Local Time) from KMIE Reporting Station
Light Snow Light Snow  
Wind Chill: 20°   Ceiling: 2000
Heat Index: 30°   Visibility: 2mi
Dew Point: 25°   Wind: 14mph
Humidity: 82%   Direction: 280°W
Pressure: 30.27"   Gusts: NA
Location:  40.15°N, 85.2628°W
Report Text: KMIE 271826Z 28012KT 2SM -SN SCT014 BKN020 OVC028 M01/M04 A3027 RMK AO2 P0000 T10111039
Loading
Personal Weather Stations






























Interactive Weather Map New forecast layout! Learn more

10-Day Weather Forecast

Advertisements
Track Severe Weather on mobile